Time;durP1;ratioP1;P1;durP2;ratioP2;P2;SDS_P1;SDS_P2;PMS_P1;PMS_P2;Temp;Humidity;BMP_temperature;BMP_pressure;BME280_temperature;BME280_humidity;BME280_pressure;Samples;Min_cycle;Max_cycle;Signal;HPM_P1;HPM_P2
2021/12/10 05:45:28;;;;;;;;;;;;;;;0.60;100.00;97175.09;5785785;23;20259;-67
2021/12/10 05:47:55;;;;;;;;;;;;;;;0.54;100.00;97173.75;4898610;29;20242;-69
2021/12/10 05:50:24;;;;;;;;;;;;;;;0.46;100.00;97170.09;4896489;29;19928;-69
2021/12/10 05:52:51;;;;;;;;;;;;;;;0.50;100.00;97159.94;4896659;29;19943;-69
2021/12/10 05:55:19;;;;;;;;;;;;;;;0.57;100.00;97154.59;4899176;29;19935;-69
2021/12/10 05:57:47;;;;;;;;;;;;;;;0.59;100.00;97154.22;4899028;29;19932;-69
2021/12/10 06:00:17;;;;;;;;;;;;;;;0.50;100.00;97161.91;4899265;29;19932;-69
2021/12/10 06:02:44;;;;;;;;;;;;;;;0.55;100.00;97150.63;4898274;29;19931;-69
2021/12/10 06:05:12;;;;;;;;;;;;;;;0.38;100.00;97146.31;4899193;29;19931;-69
2021/12/10 06:07:40;;;;;;;;;;;;;;;0.38;100.00;97137.28;4898270;29;19928;-69
2021/12/10 06:10:09;;;;;;;;;;;;;;;0.43;100.00;97123.25;4899024;29;19927;-69
2021/12/10 06:12:36;;;;;;;;;;;;;;;0.44;100.00;97124.84;4898859;29;19939;-69
2021/12/10 06:15:05;;;;;;;;;;;;;;;0.41;100.00;97111.81;4909919;29;19935;-69
2021/12/10 06:17:32;;;;;;;;;;;;;;;0.34;100.00;97103.41;4917575;29;19935;-69
2021/12/10 06:19:59;;;;;;;;;;;;;;;0.34;100.00;97097.94;4887313;29;19939;-69
2021/12/10 06:22:27;;;;;;;;;;;;;;;0.26;100.00;97091.47;4912927;29;19932;-69
2021/12/10 06:24:54;;;;;;;;;;;;;;;0.16;100.00;97092.03;4901002;29;19928;-72
2021/12/10 06:27:21;;;;;;;;;;;;;;;0.17;100.00;97085.38;4897634;29;19958;-72
2021/12/10 06:29:49;;;;;;;;;;;;;;;0.15;100.00;97086.91;4905383;29;19931;-73
2021/12/10 06:32:16;;;;;;;;;;;;;;;0.19;100.00;97079.53;4906664;29;19935;-73
2021/12/10 06:34:44;;;;;;;;;;;;;;;0.25;100.00;97075.31;4902242;29;19938;-68
2021/12/10 06:37:11;;;;;;;;;;;;;;;0.33;100.00;97074.31;4903287;29;19931;-68
2021/12/10 06:39:39;;;;;;;;;;;;;;;0.30;100.00;97067.59;4901527;29;20301;-69
2021/12/10 06:42:06;;;;;;;;;;;;;;;0.20;100.00;97059.13;4896397;29;19956;-69
2021/12/10 06:44:36;;;;;;;;;;;;;;;0.23;100.00;97070.19;4900279;29;20220;-69
2021/12/10 06:47:06;;;;;;;;;;;;;;;0.26;100.00;97079.69;4901474;29;19939;-69
2021/12/10 06:49:33;;;;;;;;;;;;;;;0.29;100.00;97079.75;4901092;29;19935;-69
2021/12/10 06:52:01;;;;;;;;;;;;;;;0.32;100.00;97079.03;4901866;29;19974;-69
2021/12/10 06:54:29;;;;;;;;;;;;;;;0.42;100.00;97072.16;4901277;29;19931;-69
2021/12/10 06:56:57;;;;;;;;;;;;;;;0.39;100.00;97061.91;4901617;29;19932;-69
2021/12/10 06:59:26;;;;;;;;;;;;;;;0.28;100.00;97044.38;4900960;29;19931;-69
2021/12/10 07:01:54;;;;;;;;;;;;;;;0.17;100.00;97044.13;4901403;29;19942;-69
2021/12/10 07:04:21;;;;;;;;;;;;;;;0.21;100.00;97035.97;4902411;29;19962;-69
2021/12/10 07:06:50;;;;;;;;;;;;;;;0.20;100.00;97026.13;4902044;29;19935;-69
2021/12/10 07:09:22;;;;;;;;;;;;;;;0.14;100.00;97020.16;4901479;29;19934;-69
2021/12/10 07:11:51;;;;;;;;;;;;;;;0.17;100.00;97019.41;4894039;29;19935;-69
2021/12/10 07:14:19;;;;;;;;;;;;;;;0.30;100.00;97028.31;4883125;29;20232;-69
2021/12/10 07:16:47;;;;;;;;;;;;;;;0.54;100.00;97031.53;4901645;29;19938;-69
2021/12/10 07:19:15;;;;;;;;;;;;;;;0.60;100.00;97026.56;4870462;29;19978;-69
2021/12/10 07:21:44;;;;;;;;;;;;;;;0.60;100.00;97029.31;4899083;29;19938;-69
2021/12/10 07:24:13;;;;;;;;;;;;;;;0.68;100.00;97015.31;4877281;29;19936;-69
2021/12/10 07:26:42;;;;;;;;;;;;;;;0.81;100.00;97013.19;4883403;29;19932;-69
2021/12/10 07:29:09;;;;;;;;;;;;;;;0.83;100.00;97010.88;4902322;29;19939;-69
2021/12/10 07:31:37;;;;;;;;;;;;;;;0.83;100.00;97021.09;4904499;29;19936;-69
2021/12/10 07:34:06;;;;;;;;;;;;;;;0.80;100.00;97019.06;4901034;29;20244;-69
2021/12/10 07:36:33;;;;;;;;;;;;;;;0.86;100.00;97001.06;4897793;29;19931;-69
2021/12/10 07:39:03;;;;;;;;;;;;;;;0.93;100.00;97007.50;4907158;29;19938;-69
2021/12/10 07:41:30;;;;;;;;;;;;;;;1.03;100.00;97008.84;4897018;29;19927;-69
2021/12/10 07:43:58;;;;;;;;;;;;;;;1.07;100.00;97018.78;4899086;29;19935;-69
2021/12/10 07:46:28;;;;;;;;;;;;;;;1.03;100.00;97017.09;4894691;29;20017;-69
2021/12/10 07:48:55;;;;;;;;;;;;;;;0.97;100.00;97013.09;4899379;29;19938;-69
2021/12/10 07:51:26;;;;;;;;;;;;;;;0.89;100.00;97014.13;4894791;29;19939;-69
2021/12/10 07:53:57;;;;;;;;;;;;;;;0.92;100.00;97005.94;4893504;29;19997;-69
2021/12/10 07:56:28;;;;;;;;;;;;;;;0.96;100.00;96994.97;4899224;29;20240;-69
2021/12/10 07:58:56;;;;;;;;;;;;;;;1.04;100.00;96993.94;4900366;29;20232;-69
2021/12/10 08:01:26;;;;;;;;;;;;;;;1.03;100.00;97003.34;4895292;29;19928;-69
2021/12/10 08:03:54;;;;;;;;;;;;;;;1.14;100.00;97001.59;4900312;29;20351;-69
2021/12/10 08:06:22;;;;;;;;;;;;;;;1.19;100.00;97004.84;4900267;29;19931;-69
2021/12/10 08:08:50;;;;;;;;;;;;;;;1.28;100.00;97007.31;4900011;29;19931;-69
2021/12/10 08:11:18;;;;;;;;;;;;;;;1.37;100.00;96996.06;4883724;29;20233;-69
2021/12/10 08:13:45;;;;;;;;;;;;;;;1.49;100.00;97001.38;4881530;29;20246;-69
2021/12/10 08:16:13;;;;;;;;;;;;;;;1.49;100.00;97010.44;4867452;29;20313;-69
2021/12/10 08:18:41;;;;;;;;;;;;;;;1.57;100.00;97016.81;4888720;29;19938;-69
2021/12/10 08:21:09;;;;;;;;;;;;;;;1.53;100.00;97003.00;4892084;29;20256;-69
2021/12/10 08:23:37;;;;;;;;;;;;;;;1.42;100.00;97007.53;4889423;29;19931;-69
2021/12/10 08:26:05;;;;;;;;;;;;;;;1.49;100.00;97013.19;4898459;29;19947;-69
2021/12/10 08:28:33;;;;;;;;;;;;;;;1.49;100.00;97010.44;4899878;29;19935;-69
2021/12/10 08:31:03;;;;;;;;;;;;;;;1.67;100.00;97005.97;4898118;29;19932;-70
2021/12/10 08:33:31;;;;;;;;;;;;;;;1.56;100.00;97002.25;4899052;29;20240;-69
2021/12/10 08:36:02;;;;;;;;;;;;;;;1.40;100.00;96990.59;4898453;29;19931;-69
2021/12/10 08:38:30;;;;;;;;;;;;;;;1.49;100.00;97001.38;4881157;29;19942;-67
2021/12/10 08:40:59;;;;;;;;;;;;;;;1.45;100.00;97001.28;4895412;29;19927;-67
2021/12/10 08:43:29;;;;;;;;;;;;;;;1.36;100.00;97008.22;4899156;29;20003;-68
2021/12/10 08:45:57;;;;;;;;;;;;;;;1.29;100.00;97008.91;4899172;29;19939;-70
2021/12/10 08:48:26;;;;;;;;;;;;;;;1.39;100.00;97013.81;4899176;29;19927;-69
2021/12/10 08:50:54;;;;;;;;;;;;;;;1.50;100.00;97013.94;4883024;29;20292;-68
2021/12/10 08:53:21;;;;;;;;;;;;;;;1.29;100.00;97014.44;4898913;29;19932;-68
2021/12/10 08:55:50;;;;;;;;;;;;;;;1.27;100.00;97006.50;4898639;29;20309;-69
2021/12/10 08:58:18;;;;;;;;;;;;;;;1.27;100.00;96998.25;4898697;29;19927;-68
2021/12/10 09:00:48;;;;;;;;;;;;;;;1.31;100.00;97001.06;4898668;29;19965;-68
2021/12/10 09:03:15;;;;;;;;;;;;;;;1.43;100.00;96989.84;4895660;29;19942;-68
2021/12/10 09:05:43;;;;;;;;;;;;;;;1.55;100.00;96991.59;4898342;29;19935;-69
2021/12/10 09:08:10;;;;;;;;;;;;;;;1.61;100.00;96996.44;4898404;29;20340;-69
2021/12/10 09:10:39;;;;;;;;;;;;;;;1.66;100.00;96987.84;4899398;29;19931;-68
2021/12/10 09:13:13;;;;;;;;;;;;;;;1.69;100.00;96989.03;4898987;29;19934;-69
2021/12/10 09:15:43;;;;;;;;;;;;;;;1.59;100.00;96986.97;4899137;29;19958;-69
2021/12/10 09:18:11;;;;;;;;;;;;;;;1.54;100.00;96992.78;4898605;29;19931;-69
2021/12/10 09:20:41;;;;;;;;;;;;;;;1.47;100.00;96998.19;4894833;29;19932;-68
2021/12/10 09:23:10;;;;;;;;;;;;;;;1.46;100.00;96986.38;4896877;29;20229;-68
2021/12/10 09:25:38;;;;;;;;;;;;;;;1.17;100.00;96985.09;4897072;29;19928;-68
2021/12/10 09:28:05;;;;;;;;;;;;;;;1.14;100.00;96980.34;4894832;29;20347;-68
2021/12/10 09:30:35;;;;;;;;;;;;;;;1.19;100.00;96971.00;4895096;29;19931;-68
2021/12/10 09:33:03;;;;;;;;;;;;;;;1.12;100.00;96973.63;4885069;29;20311;-69
2021/12/10 09:35:43;;;;;;;;;;;;;;;1.18;100.00;96980.41;4885540;29;19932;-68
2021/12/10 09:38:10;;;;;;;;;;;;;;;0.96;100.00;96967.44;4885443;29;19933;-68
2021/12/10 09:41:10;;;;;;;;;;;;;;;0.84;100.00;96957.44;4838552;29;20340;-68
2021/12/10 09:43:39;;;;;;;;;;;;;;;0.77;100.00;96956.50;4884862;29;19939;-68
2021/12/10 09:46:07;;;;;;;;;;;;;;;0.80;100.00;96956.59;4886191;29;19936;-67
2021/12/10 09:48:35;;;;;;;;;;;;;;;0.81;100.00;96946.38;4885860;29;19932;-69
2021/12/10 09:51:04;;;;;;;;;;;;;;;0.78;100.00;96939.66;4886830;29;21295;-68
2021/12/10 09:53:33;;;;;;;;;;;;;;;0.72;100.00;96927.34;4884998;29;19939;-69
2021/12/10 09:56:00;;;;;;;;;;;;;;;0.67;100.00;96927.66;4885204;29;19985;-69
2021/12/10 09:58:29;;;;;;;;;;;;;;;0.68;100.00;96906.44;4885537;29;19936;-68
2021/12/10 10:00:58;;;;;;;;;;;;;;;0.62;100.00;96914.22;4885627;29;19940;-69
2021/12/10 10:03:28;;;;;;;;;;;;;;;0.53;100.00;96908.16;4885100;29;19936;-69
2021/12/10 10:05:56;;;;;;;;;;;;;;;0.43;100.00;96915.06;4885927;29;19962;-69
2021/12/10 10:08:25;;;;;;;;;;;;;;;0.44;100.00;96913.88;4884583;29;20321;-69
2021/12/10 10:10:55;;;;;;;;;;;;;;;0.44;100.00;96918.63;4884086;29;20229;-69
2021/12/10 10:13:26;;;;;;;;;;;;;;;0.50;100.00;96920.69;4885443;29;19935;-69
2021/12/10 10:16:15;;;;;;;;;;;;;;;0.58;100.00;96916.13;4885846;29;19931;-69
2021/12/10 10:18:43;;;;;;;;;;;;;;;0.62;100.00;96925.22;4873736;29;19936;-69
2021/12/10 10:21:15;;;;;;;;;;;;;;;0.50;100.00;96923.44;4885429;29;19939;-69
2021/12/10 10:23:43;;;;;;;;;;;;;;;0.58;100.00;96916.91;4873780;29;19936;-69
2021/12/10 10:26:15;;;;;;;;;;;;;;;0.53;100.00;96921.91;4883886;29;20186;-69
2021/12/10 10:28:42;;;;;;;;;;;;;;;0.48;100.00;96920.28;4884843;29;20305;-68
2021/12/10 10:31:16;;;;;;;;;;;;;;;0.53;100.00;96925.47;4885080;29;19943;-69
2021/12/10 10:33:45;;;;;;;;;;;;;;;0.57;100.00;96917.25;4884656;29;19935;-69
2021/12/10 10:36:19;;;;;;;;;;;;;;;0.53;100.00;96910.91;4885439;29;19935;-69
2021/12/10 10:38:51;;;;;;;;;;;;;;;0.56;100.00;96904.69;4885220;29;19943;-69
2021/12/10 10:41:21;;;;;;;;;;;;;;;0.55;100.00;96895.63;4885059;29;19935;-69
2021/12/10 10:43:49;;;;;;;;;;;;;;;0.60;100.00;96891.78;4885003;29;19932;-69
2021/12/10 10:46:16;;;;;;;;;;;;;;;0.66;100.00;96885.59;4884823;29;19951;-69
2021/12/10 10:48:48;;;;;;;;;;;;;;;0.71;100.00;96873.47;4884821;29;20221;-69
2021/12/10 10:51:24;;;;;;;;;;;;;;;0.70;100.00;96882.13;4884488;29;19932;-69
2021/12/10 10:53:53;;;;;;;;;;;;;;;0.66;100.00;96877.34;4884657;29;19943;-69
2021/12/10 10:56:44;;;;;;;;;;;;;;;0.75;100.00;96868.84;4885391;29;19936;-69
2021/12/10 10:59:13;;;;;;;;;;;;;;;0.76;100.00;96864.16;4881068;29;19936;-69
2021/12/10 11:01:46;;;;;;;;;;;;;;;0.91;100.00;96863.19;4887446;29;19939;-69
2021/12/10 11:04:24;;;;;;;;;;;;;;;0.99;100.00;96865.69;4888087;29;19939;-69
2021/12/10 11:06:53;;;;;;;;;;;;;;;1.02;100.00;96862.19;4887792;29;19936;-69
2021/12/10 11:09:21;;;;;;;;;;;;;;;1.07;100.00;96861.88;4888565;29;19942;-69
2021/12/10 11:11:51;;;;;;;;;;;;;;;1.11;100.00;96859.16;4888417;29;19935;-69
2021/12/10 11:14:20;;;;;;;;;;;;;;;1.02;100.00;96850.41;4887567;29;19931;-69
2021/12/10 11:16:49;;;;;;;;;;;;;;;1.02;100.00;96853.94;4884999;29;20467;-69
2021/12/10 11:19:24;;;;;;;;;;;;;;;1.03;100.00;96862.97;4884896;29;19942;-69
2021/12/10 11:21:53;;;;;;;;;;;;;;;0.95;100.00;96853.84;4888654;29;19958;-69
2021/12/10 11:24:25;;;;;;;;;;;;;;;1.01;100.00;96857.06;4888543;29;20209;-69
2021/12/10 11:26:55;;;;;;;;;;;;;;;0.99;100.00;96859.38;4886692;29;20431;-69
2021/12/10 11:29:30;;;;;;;;;;;;;;;0.94;100.00;96851.44;4887584;29;20332;-69
2021/12/10 11:32:03;;;;;;;;;;;;;;;0.88;100.00;96858.44;4887820;29;19935;-69
2021/12/10 11:34:46;;;;;;;;;;;;;;;0.87;100.00;96856.84;4888474;29;19939;-69
2021/12/10 11:37:14;;;;;;;;;;;;;;;0.85;100.00;96857.22;4887900;29;19931;-69
2021/12/10 11:39:43;;;;;;;;;;;;;;;0.85;100.00;96856.44;4887244;29;19932;-69
2021/12/10 11:42:31;;;;;;;;;;;;;;;0.83;100.00;96851.31;4887640;29;20260;-68
2021/12/10 11:45:30;;;;;;;;;;;;;;;0.76;100.00;96851.16;4887450;29;20014;-69
2021/12/10 11:47:50;;;;;;;;;;;;;;;0.83;100.00;96845.81;4868612;29;20348;-69
2021/12/10 11:50:20;;;;;;;;;;;;;;;0.85;100.00;96837.16;4868760;29;19939;-69
2021/12/10 11:53:10;;;;;;;;;;;;;;;0.83;100.00;96828.50;4867861;29;20230;-69
2021/12/10 11:55:52;;;;;;;;;;;;;;;0.76;100.00;96820.13;4868729;29;20400;-69
2021/12/10 11:58:19;;;;;;;;;;;;;;;0.73;100.00;96815.38;4869156;29;20225;-69
2021/12/10 12:00:46;;;;;;;;;;;;;;;0.72;100.00;96811.81;4868843;29;19936;-69
2021/12/10 12:03:14;;;;;;;;;;;;;;;0.87;100.00;96810.06;4868258;29;19954;-69
2021/12/10 12:05:43;;;;;;;;;;;;;;;0.92;100.00;96813.31;4868079;29;20318;-69
2021/12/10 12:08:13;;;;;;;;;;;;;;;1.00;100.00;96801.22;4868181;29;19942;-69
2021/12/10 12:10:42;;;;;;;;;;;;;;;1.07;100.00;96797.78;4867415;29;19936;-69
2021/12/10 12:15:47;;;;;;;;;;;;;;;1.20;100.00;96796.38;4868149;29;19932;-69
2021/12/10 12:18:25;;;;;;;;;;;;;;;1.19;100.00;96795.59;4867875;29;20252;-69
2021/12/10 12:20:57;;;;;;;;;;;;;;;1.15;100.00;96786.47;4867632;29;20642;-69
2021/12/10 12:26:21;;;;;;;;;;;;;;;1.14;100.00;96770.34;4868240;29;19935;-69
2021/12/10 12:28:58;;;;;;;;;;;;;;;1.12;100.00;96758.91;4867680;29;20266;-69
2021/12/10 12:31:30;;;;;;;;;;;;;;;1.11;100.00;96757.31;4867098;29;19940;-69
2021/12/10 12:34:00;;;;;;;;;;;;;;;1.14;100.00;96760.13;4867290;29;20447;-69
2021/12/10 12:36:34;;;;;;;;;;;;;;;1.09;100.00;96756.91;4866748;29;19940;-69
2021/12/10 12:39:04;;;;;;;;;;;;;;;1.10;100.00;96753.78;4867832;29;19946;-69
2021/12/10 12:41:34;;;;;;;;;;;;;;;1.10;100.00;96742.75;4867095;29;19947;-69
2021/12/10 12:44:12;;;;;;;;;;;;;;;1.13;100.00;96743.97;4867268;29;20345;-69
2021/12/10 12:47:13;;;;;;;;;;;;;;;1.14;100.00;96735.34;4878694;29;19938;-69
2021/12/10 12:49:46;;;;;;;;;;;;;;;1.17;100.00;96734.59;4855685;29;19972;-69
2021/12/10 12:52:14;;;;;;;;;;;;;;;1.24;100.00;96726.44;4887739;29;19935;-69
2021/12/10 12:55:01;;;;;;;;;;;;;;;1.19;100.00;96718.50;4888544;29;19935;-69
2021/12/10 12:57:40;;;;;;;;;;;;;;;1.19;100.00;96721.25;4888853;29;19942;-69
2021/12/10 13:00:09;;;;;;;;;;;;;;;1.15;100.00;96716.88;4890022;29;19935;-69
2021/12/10 13:02:36;;;;;;;;;;;;;;;1.19;100.00;96718.50;4887178;29;19932;-69
2021/12/10 13:05:05;;;;;;;;;;;;;;;1.24;100.00;96709.13;4886218;29;19932;-69
2021/12/10 13:07:32;;;;;;;;;;;;;;;1.22;100.00;96711.47;4886427;29;19936;-69
2021/12/10 13:10:03;;;;;;;;;;;;;;;1.28;100.00;96707.19;4885978;29;19931;-69
2021/12/10 13:15:33;;;;;;;;;;;;;;;1.45;100.00;96703.03;4884593;29;20811;-69
2021/12/10 13:18:03;;;;;;;;;;;;;;;1.48;100.00;96700.34;4884762;29;19936;-69
2021/12/10 13:20:32;;;;;;;;;;;;;;;1.53;100.00;96699.19;4885417;29;19936;-69
2021/12/10 13:23:01;;;;;;;;;;;;;;;1.61;100.00;96701.66;4885861;29;19942;-69
2021/12/10 13:25:30;;;;;;;;;;;;;;;1.54;100.00;96696.06;4885416;29;20209;-69
2021/12/10 13:27:59;;;;;;;;;;;;;;;1.50;100.00;96697.19;4884800;29;19962;-69
2021/12/10 13:30:31;;;;;;;;;;;;;;;1.45;100.00;96700.28;4885166;29;19936;-69
2021/12/10 13:32:59;;;;;;;;;;;;;;;1.44;100.00;96693.22;4887262;29;19936;-69
2021/12/10 13:35:28;;;;;;;;;;;;;;;1.40;100.00;96695.91;4886840;29;19936;-69
2021/12/10 13:37:56;;;;;;;;;;;;;;;1.33;100.00;96693.88;4885253;29;20336;-69
2021/12/10 13:40:24;;;;;;;;;;;;;;;1.33;100.00;96691.13;4884651;29;19936;-69
2021/12/10 13:42:51;;;;;;;;;;;;;;;1.26;100.00;96698.53;4885521;29;19936;-69
2021/12/10 13:45:21;;;;;;;;;;;;;;;1.33;100.00;96693.09;4891375;29;19928;-69
2021/12/10 13:47:52;;;;;;;;;;;;;;;1.33;100.00;96695.84;4897822;29;19951;-69
2021/12/10 13:50:23;;;;;;;;;;;;;;;1.34;100.00;96694.69;4898444;29;19943;-69
2021/12/10 13:52:51;;;;;;;;;;;;;;;1.30;100.00;96700.13;4885844;29;20249;-69
2021/12/10 13:55:22;;;;;;;;;;;;;;;1.33;100.00;96701.34;4886082;29;19935;-68
2021/12/10 13:58:08;;;;;;;;;;;;;;;1.34;100.00;96702.94;4886037;29;20220;-68
2021/12/10 14:00:37;;;;;;;;;;;;;;;1.31;100.00;96700.94;4886283;29;20317;-69
2021/12/10 14:03:05;;;;;;;;;;;;;;;1.27;100.00;96702.88;4873167;29;19932;-69
2021/12/10 14:05:36;;;;;;;;;;;;;;;1.18;100.00;96703.16;4889536;29;19942;-69
2021/12/10 14:08:09;;;;;;;;;;;;;;;1.07;100.00;96695.94;4884355;29;19928;-69
2021/12/10 14:10:40;;;;;;;;;;;;;;;0.98;100.00;96696.22;4885851;29;19943;-69
2021/12/10 14:13:09;;;;;;;;;;;;;;;1.03;100.00;96697.84;4886091;29;20550;-69
2021/12/10 14:16:00;;;;;;;;;;;;;;;0.97;100.00;96704.84;4885074;29;19935;-69
2021/12/10 14:18:29;;;;;;;;;;;;;;;0.99;100.00;96699.75;4884523;29;19935;-69
2021/12/10 14:20:56;;;;;;;;;;;;;;;0.95;100.00;96690.69;4884569;29;20439;-69
2021/12/10 14:23:25;;;;;;;;;;;;;;;0.73;100.00;96695.13;4885130;29;19943;-69
2021/12/10 14:26:00;;;;;;;;;;;;;;;0.64;100.00;96695.38;4884343;29;19931;-69
2021/12/10 14:28:35;;;;;;;;;;;;;;;0.65;100.00;96699.72;4885249;29;20233;-69
2021/12/10 14:31:02;;;;;;;;;;;;;;;0.67;100.00;96699.34;4884906;29;19935;-69
2021/12/10 14:33:30;;;;;;;;;;;;;;;0.64;100.00;96705.59;4884650;29;19936;-69
2021/12/10 14:36:00;;;;;;;;;;;;;;;0.64;100.00;96702.84;4888566;29;19935;-69
2021/12/10 14:38:33;;;;;;;;;;;;;;;0.65;100.00;96704.44;4888183;29;19936;-69
2021/12/10 14:41:13;;;;;;;;;;;;;;;0.67;100.00;96704.84;4888549;29;19936;-69
2021/12/10 14:43:43;;;;;;;;;;;;;;;0.63;100.00;96707.56;4887927;29;20426;-69
2021/12/10 14:46:18;;;;;;;;;;;;;;;0.67;100.00;96707.59;4888341;29;19932;-69
2021/12/10 14:48:59;;;;;;;;;;;;;;;0.65;100.00;96710.75;4887415;29;19935;-69
2021/12/10 14:51:27;;;;;;;;;;;;;;;0.65;100.00;96704.44;4888569;29;19943;-69
2021/12/10 14:54:01;;;;;;;;;;;;;;;0.61;100.00;96707.13;4888306;29;20332;-69
2021/12/10 14:56:35;;;;;;;;;;;;;;;0.56;100.00;96710.19;4887454;29;19942;-69
2021/12/10 14:59:05;;;;;;;;;;;;;;;0.65;100.00;96708.00;4876145;29;19936;-69
2021/12/10 15:01:33;;;;;;;;;;;;;;;0.69;100.00;96716.28;4887986;29;19932;-69
2021/12/10 15:04:21;;;;;;;;;;;;;;;0.67;100.00;96715.84;4888519;29;20325;-69
2021/12/10 15:06:52;;;;;;;;;;;;;;;0.70;100.00;96708.81;4887093;29;19942;-69
2021/12/10 15:09:20;;;;;;;;;;;;;;;0.58;100.00;96712.59;4888652;29;20607;-69
2021/12/10 15:11:56;;;;;;;;;;;;;;;0.62;100.00;96708.72;4888003;29;19953;-69
2021/12/10 15:14:25;;;;;;;;;;;;;;;0.58;100.00;96707.91;4888320;29;19938;-69
2021/12/10 15:16:57;;;;;;;;;;;;;;;0.62;100.00;96711.47;4887258;29;19939;-69
2021/12/10 15:19:27;;;;;;;;;;;;;;;0.61;100.00;96717.34;4887242;29;19932;-69
2021/12/10 15:21:59;;;;;;;;;;;;;;;0.52;100.00;96716.81;4887613;29;19935;-69
2021/12/10 15:24:28;;;;;;;;;;;;;;;0.42;100.00;96721.00;4886972;29;20394;-69
2021/12/10 15:27:14;;;;;;;;;;;;;;;0.35;100.00;96718.16;4886947;29;19931;-69
2021/12/10 15:30:00;;;;;;;;;;;;;;;0.27;100.00;96723.91;4891590;29;19936;-68
2021/12/10 15:32:27;;;;;;;;;;;;;;;0.31;100.00;96724.75;4887015;29;19942;-69
2021/12/10 15:35:02;;;;;;;;;;;;;;;0.31;100.00;96725.56;4887789;29;20486;-69
2021/12/10 15:37:31;;;;;;;;;;;;;;;0.24;100.00;96716.41;4887150;29;19931;-69
2021/12/10 15:40:18;;;;;;;;;;;;;;;0.27;100.00;96719.19;4887211;29;20803;-69
2021/12/10 15:42:45;;;;;;;;;;;;;;;0.28;100.00;96726.28;4887582;29;19939;-69
2021/12/10 15:45:18;;;;;;;;;;;;;;;0.28;100.00;96723.53;4887641;29;19942;-69
2021/12/10 15:47:48;;;;;;;;;;;;;;;0.31;100.00;96736.56;4887424;29;19942;-69
2021/12/10 15:50:17;;;;;;;;;;;;;;;0.34;100.00;96738.53;4886989;29;19935;-69
2021/12/10 15:52:44;;;;;;;;;;;;;;;0.36;100.00;96738.19;4886206;29;19936;-69
2021/12/10 15:55:12;;;;;;;;;;;;;;;0.32;100.00;96740.88;4886772;29;19936;-68
2021/12/10 15:57:42;;;;;;;;;;;;;;;0.37;100.00;96737.00;4886560;29;19939;-68
2021/12/10 16:00:17;;;;;;;;;;;;;;;0.39;100.00;96738.22;4887066;29;19928;-68
2021/12/10 16:02:45;;;;;;;;;;;;;;;0.42;100.00;96740.25;4886588;29;19936;-68
2021/12/10 16:05:14;;;;;;;;;;;;;;;0.39;100.00;96749.22;4887061;29;19931;-68
2021/12/10 16:07:44;;;;;;;;;;;;;;;0.38;100.00;96752.34;4886705;29;19936;-68
2021/12/10 16:10:13;;;;;;;;;;;;;;;0.37;100.00;96746.06;4887329;29;19936;-68
2021/12/10 16:12:42;;;;;;;;;;;;;;;0.39;100.00;96746.47;4886755;29;19927;-68
2021/12/10 16:15:21;;;;;;;;;;;;;;;0.48;100.00;96743.47;4887228;29;19936;-68
2021/12/10 16:17:53;;;;;;;;;;;;;;;0.56;100.00;96740.44;4886556;29;19936;-68
2021/12/10 16:20:22;;;;;;;;;;;;;;;0.49;100.00;96747.81;4887361;29;19944;-68
2021/12/10 16:22:50;;;;;;;;;;;;;;;0.65;100.00;96741.00;4887087;29;20652;-68
2021/12/10 16:25:17;;;;;;;;;;;;;;;0.68;100.00;96745.72;4886308;29;20190;-68
2021/12/10 16:27:49;;;;;;;;;;;;;;;0.64;100.00;96752.34;4886095;29;19936;-69
2021/12/10 16:30:27;;;;;;;;;;;;;;;0.64;100.00;96749.59;4888135;29;19942;-69
2021/12/10 16:32:55;;;;;;;;;;;;;;;0.75;100.00;96747.00;4887190;29;19927;-68
2021/12/10 16:35:23;;;;;;;;;;;;;;;0.79;100.00;96745.09;4887564;29;19939;-68
2021/12/10 16:37:51;;;;;;;;;;;;;;;0.81;100.00;96740.81;4886615;29;19943;-68
2021/12/10 16:40:24;;;;;;;;;;;;;;;0.76;100.00;96743.88;4887550;29;19936;-68
2021/12/10 16:42:58;;;;;;;;;;;;;;;0.79;100.00;96751.41;4887126;29;19935;-68
2021/12/10 16:45:27;;;;;;;;;;;;;;;0.79;100.00;96753.34;4886105;29;19950;-68
2021/12/10 16:47:54;;;;;;;;;;;;;;;0.73;100.00;96750.16;4886861;29;19958;-68
2021/12/10 16:50:24;;;;;;;;;;;;;;;0.78;100.00;96746.28;4887351;29;19942;-68
2021/12/10 16:52:52;;;;;;;;;;;;;;;0.80;100.00;96749.44;4886352;29;19931;-68
2021/12/10 16:55:22;;;;;;;;;;;;;;;0.77;100.00;96753.72;4886649;29;20351;-68
2021/12/10 16:57:51;;;;;;;;;;;;;;;0.77;100.00;96761.19;4886634;29;19935;-68
2021/12/10 17:00:21;;;;;;;;;;;;;;;0.79;100.00;96756.09;4887456;29;19957;-68
2021/12/10 17:02:53;;;;;;;;;;;;;;;0.88;100.00;96757.41;4887007;29;19939;-68
2021/12/10 17:05:22;;;;;;;;;;;;;;;0.82;100.00;96760.84;4886673;29;19942;-68
2021/12/10 17:07:51;;;;;;;;;;;;;;;0.78;100.00;96762.78;4887074;29;19928;-68
2021/12/10 17:10:21;;;;;;;;;;;;;;;0.76;100.00;96757.63;4887226;29;19935;-68
2021/12/10 17:12:49;;;;;;;;;;;;;;;0.73;100.00;96758.41;4889376;29;20588;-68
2021/12/10 17:15:20;;;;;;;;;;;;;;;0.68;100.00;96770.50;4888622;29;19935;-68
2021/12/10 17:17:50;;;;;;;;;;;;;;;0.65;100.00;96771.25;4888215;29;19943;-68
2021/12/10 17:20:17;;;;;;;;;;;;;;;0.64;100.00;96775.16;4887971;29;19931;-68
2021/12/10 17:22:47;;;;;;;;;;;;;;;0.63;100.00;96778.28;4886987;29;19935;-68
2021/12/10 17:25:20;;;;;;;;;;;;;;;0.65;100.00;96781.44;4886462;29;19935;-68
2021/12/10 17:27:48;;;;;;;;;;;;;;;0.62;100.00;96782.19;4886628;29;20596;-68
2021/12/10 17:30:19;;;;;;;;;;;;;;;0.61;100.00;96786.88;4888406;29;19936;-68
2021/12/10 17:32:47;;;;;;;;;;;;;;;0.63;100.00;96789.28;4886003;29;19932;-69
2021/12/10 17:35:18;;;;;;;;;;;;;;;0.59;100.00;96791.16;4887243;29;19931;-68
2021/12/10 17:37:45;;;;;;;;;;;;;;;0.59;100.00;96791.97;4885848;29;19932;-68
2021/12/10 17:40:19;;;;;;;;;;;;;;;0.59;100.00;96791.97;4885495;29;19943;-68
2021/12/10 17:42:54;;;;;;;;;;;;;;;0.66;100.00;96789.31;4886759;29;19965;-68
2021/12/10 17:45:25;;;;;;;;;;;;;;;0.71;100.00;96795.69;4885801;29;19932;-68
2021/12/10 17:47:55;;;;;;;;;;;;;;;0.73;100.00;96801.59;4886834;29;19935;-69
2021/12/10 17:50:30;;;;;;;;;;;;;;;0.73;100.00;96802.41;4887799;29;20396;-69
2021/12/10 17:52:59;;;;;;;;;;;;;;;0.78;100.00;96801.28;4885999;29;19936;-69
2021/12/10 17:55:28;;;;;;;;;;;;;;;0.77;100.00;96800.50;4886456;29;19935;-68
2021/12/10 17:58:01;;;;;;;;;;;;;;;0.78;100.00;96804.03;4886582;29;20344;-69
2021/12/10 18:00:37;;;;;;;;;;;;;;;0.78;100.00;96815.06;4888661;29;20217;-69
2021/12/10 18:03:09;;;;;;;;;;;;;;;0.77;100.00;96819.75;4889813;29;19935;-69
2021/12/10 18:05:38;;;;;;;;;;;;;;;0.79;100.00;96817.41;4887752;29;19943;-68
2021/12/10 18:08:07;;;;;;;;;;;;;;;0.88;100.00;96819.91;4887679;29;20348;-69
2021/12/10 18:10:36;;;;;;;;;;;;;;;0.82;100.00;96819.44;4886588;29;19942;-70
2021/12/10 18:13:06;;;;;;;;;;;;;;;0.75;100.00;96824.03;4888251;29;19932;-69
2021/12/10 18:15:41;;;;;;;;;;;;;;;0.72;100.00;96819.25;4887155;29;19936;-69
2021/12/10 18:18:10;;;;;;;;;;;;;;;0.72;100.00;96828.31;4887214;29;20237;-68
2021/12/10 18:20:41;;;;;;;;;;;;;;;0.73;100.00;96826.38;4886501;29;19932;-68
2021/12/10 18:23:10;;;;;;;;;;;;;;;0.74;100.00;96828.75;4885627;29;19943;-68
2021/12/10 18:25:46;;;;;;;;;;;;;;;0.78;100.00;96826.06;4886215;29;19939;-68
2021/12/10 18:28:17;;;;;;;;;;;;;;;0.76;100.00;96826.41;4885891;29;19935;-68
2021/12/10 18:30:46;;;;;;;;;;;;;;;0.77;100.00;96822.50;4886142;29;19938;-68
2021/12/10 18:33:14;;;;;;;;;;;;;;;0.73;100.00;96827.16;4885192;29;19935;-68
2021/12/10 18:35:44;;;;;;;;;;;;;;;0.74;100.00;96827.94;4886728;29;19935;-69
2021/12/10 18:38:12;;;;;;;;;;;;;;;0.73;100.00;96829.91;4887355;29;19935;-68
2021/12/10 18:40:42;;;;;;;;;;;;;;;0.73;100.00;96837.38;4886415;29;19935;-68
2021/12/10 18:43:11;;;;;;;;;;;;;;;0.66;100.00;96838.06;4886045;29;19939;-73
2021/12/10 18:45:43;;;;;;;;;;;;;;;0.68;100.00;96838.47;4885954;29;19935;-68
2021/12/10 18:48:11;;;;;;;;;;;;;;;0.71;100.00;96836.94;4885851;29;19943;-68
2021/12/10 18:50:47;;;;;;;;;;;;;;;0.72;100.00;96835.78;4886593;29;20435;-68
2021/12/10 18:53:16;;;;;;;;;;;;;;;0.77;100.00;96840.97;4886877;29;19942;-68
2021/12/10 18:55:46;;;;;;;;;;;;;;;0.69;100.00;96837.31;4887279;29;19942;-68
2021/12/10 18:58:15;;;;;;;;;;;;;;;0.72;100.00;96847.56;4885793;29;20199;-68